createdAt,value
2023-02-17T00:01:23.771Z,33.90
2023-02-17T00:03:51.869Z,35.40
2023-02-17T00:06:21.634Z,35.20
2023-02-17T00:08:49.126Z,35.00
2023-02-17T00:11:16.325Z,34.30
2023-02-17T00:13:43.406Z,33.70
2023-02-17T00:16:21.756Z,34.30
2023-02-17T00:18:53.793Z,33.57
2023-02-17T00:21:23.072Z,34.57
2023-02-17T00:23:50.596Z,35.67
2023-02-17T00:26:18.140Z,35.67
2023-02-17T00:28:45.484Z,35.07
2023-02-17T00:31:16.497Z,34.50
2023-02-17T00:33:43.376Z,35.60
2023-02-17T00:36:17.834Z,33.00
2023-02-17T00:38:46.717Z,34.00
2023-02-17T00:41:13.688Z,33.40
2023-02-17T00:43:40.425Z,33.13
2023-02-17T00:46:07.937Z,32.30
2023-02-17T00:48:34.941Z,32.50
2023-02-17T00:51:01.640Z,33.20
2023-02-17T00:53:28.551Z,33.50
2023-02-17T00:55:55.190Z,34.70
2023-02-17T00:58:21.922Z,36.37
2023-02-17T01:00:48.901Z,38.97
2023-02-17T01:03:15.665Z,42.37
2023-02-17T01:05:44.127Z,42.27
2023-02-17T01:08:11.387Z,44.90
2023-02-17T01:10:39.152Z,46.50
2023-02-17T01:13:06.639Z,47.20
2023-02-17T01:15:54.018Z,48.07
2023-02-17T01:18:23.508Z,48.93
2023-02-17T01:20:50.552Z,53.07
2023-02-17T01:23:17.339Z,53.43
2023-02-17T01:25:45.697Z,58.83
2023-02-17T01:28:19.652Z,54.40
2023-02-17T01:30:46.801Z,57.70
2023-02-17T01:33:13.733Z,46.33
2023-02-17T01:35:40.425Z,45.00
2023-02-17T01:38:07.145Z,43.53
2023-02-17T01:40:33.803Z,40.23
2023-02-17T01:43:00.474Z,40.67
2023-02-17T01:45:35.020Z,40.10
2023-02-17T01:48:11.428Z,40.17
2023-02-17T01:50:46.774Z,37.13
2023-02-17T01:53:17.732Z,38.27
2023-02-17T01:55:45.489Z,36.50
2023-02-17T01:58:15.442Z,35.43
2023-02-17T02:00:43.016Z,34.87
2023-02-17T02:03:13.024Z,35.50
2023-02-17T02:05:41.706Z,34.37
2023-02-17T02:08:10.749Z,34.33
2023-02-17T02:10:38.252Z,33.87
2023-02-17T02:13:05.400Z,33.33
2023-02-17T02:15:44.902Z,35.13
2023-02-17T02:18:37.992Z,32.90
2023-02-17T02:21:13.925Z,34.60
2023-02-17T02:24:06.359Z,32.37
2023-02-17T02:27:10.281Z,33.57
2023-02-17T02:29:36.944Z,33.87
2023-02-17T02:32:06.489Z,33.43
2023-02-17T02:34:47.005Z,34.03
2023-02-17T02:37:24.551Z,32.30
2023-02-17T02:39:54.434Z,34.30
2023-02-17T02:42:24.513Z,33.80
2023-02-17T02:44:51.472Z,32.17
2023-02-17T02:47:54.949Z,33.63
2023-02-17T02:50:26.344Z,33.27
2023-02-17T02:53:28.500Z,32.87
2023-02-17T02:56:10.379Z,32.57
2023-02-17T02:58:37.033Z,32.40
2023-02-17T03:01:16.126Z,33.77
2023-02-17T03:04:04.695Z,32.27
2023-02-17T03:07:12.870Z,33.10
2023-02-17T03:09:39.716Z,32.37
2023-02-17T03:12:07.290Z,31.80
2023-02-17T03:14:37.528Z,33.30
2023-02-17T03:17:04.445Z,32.63
2023-02-17T03:19:31.533Z,32.03
2023-02-17T03:22:16.232Z,31.17
2023-02-17T03:24:42.949Z,32.40
2023-02-17T03:27:09.749Z,32.33
2023-02-17T03:29:36.472Z,32.63
2023-02-17T03:32:03.221Z,31.57
2023-02-17T03:34:30.101Z,31.70
2023-02-17T03:36:56.850Z,31.50
2023-02-17T03:39:23.597Z,31.10
2023-02-17T03:41:53.284Z,32.07
2023-02-17T03:44:20.212Z,30.60
2023-02-17T03:46:47.309Z,29.60
2023-02-17T03:49:15.705Z,30.17
2023-02-17T03:51:42.416Z,29.27
2023-02-17T03:54:09.187Z,30.30
2023-02-17T03:56:36.729Z,30.17
2023-02-17T03:59:04.067Z,29.67
2023-02-17T04:01:30.845Z,29.47
2023-02-17T04:03:57.700Z,29.67
2023-02-17T04:06:24.411Z,30.97
2023-02-17T04:08:51.336Z,30.07
2023-02-17T04:11:18.033Z,30.30
2023-02-17T04:13:44.851Z,28.83
2023-02-17T04:16:12.599Z,28.27
2023-02-17T04:18:39.522Z,28.43
2023-02-17T04:21:07.134Z,28.53
2023-02-17T04:23:36.145Z,28.03
2023-02-17T04:26:04.806Z,27.20
2023-02-17T04:28:31.763Z,27.93
2023-02-17T04:30:59.694Z,27.60
2023-02-17T04:33:26.991Z,27.17
2023-02-17T04:35:59.565Z,27.10
2023-02-17T04:38:28.187Z,26.40
2023-02-17T04:40:56.292Z,26.13
2023-02-17T04:43:24.056Z,25.07
2023-02-17T04:45:50.969Z,25.17
2023-02-17T04:48:18.718Z,25.17
2023-02-17T04:50:45.734Z,24.73
2023-02-17T04:53:14.082Z,25.17
2023-02-17T04:55:41.688Z,25.90
2023-02-17T04:58:09.081Z,25.30
2023-02-17T05:00:36.539Z,25.10
2023-02-17T05:03:03.660Z,23.80
2023-02-17T05:05:31.056Z,24.70
2023-02-17T05:07:57.881Z,22.60
2023-02-17T05:10:24.783Z,24.27
2023-02-17T05:12:52.346Z,24.30
2023-02-17T05:15:19.344Z,23.03
2023-02-17T05:17:46.613Z,23.10
2023-02-17T05:20:13.636Z,23.37
2023-02-17T05:22:40.675Z,23.57
2023-02-17T05:25:07.950Z,23.27
2023-02-17T05:27:34.687Z,21.70
2023-02-17T05:30:01.647Z,22.87
2023-02-17T05:32:28.437Z,21.63
2023-02-17T05:34:55.106Z,21.33
2023-02-17T05:37:21.994Z,23.07
2023-02-17T05:39:48.697Z,21.60
2023-02-17T05:42:15.389Z,22.60
2023-02-17T05:44:42.086Z,22.67
2023-02-17T05:47:08.749Z,22.93
2023-02-17T05:49:35.543Z,22.40
2023-02-17T05:52:02.972Z,22.33
2023-02-17T05:54:29.637Z,22.97
2023-02-17T05:56:56.315Z,22.47
2023-02-17T05:59:23.309Z,23.23
2023-02-17T06:01:50.109Z,23.73
2023-02-17T06:04:16.906Z,22.50
2023-02-17T06:06:43.593Z,23.27
2023-02-17T06:09:10.427Z,22.63
2023-02-17T06:11:37.139Z,22.93
2023-02-17T06:14:03.899Z,22.90
2023-02-17T06:16:30.861Z,24.60
2023-02-17T06:19:00.129Z,24.17
2023-02-17T06:21:26.909Z,24.03
2023-02-17T06:23:53.702Z,24.33
2023-02-17T06:26:20.549Z,24.70
2023-02-17T06:28:47.335Z,24.13
2023-02-17T06:31:14.205Z,22.83
2023-02-17T06:33:40.926Z,24.40
2023-02-17T06:36:08.403Z,21.97
2023-02-17T06:38:35.320Z,21.57
2023-02-17T06:41:02.205Z,20.00
2023-02-17T06:43:29.006Z,19.80
2023-02-17T06:45:55.676Z,19.63
2023-02-17T06:48:22.412Z,19.40
2023-02-17T06:50:50.174Z,18.23
2023-02-17T06:53:18.849Z,18.50
2023-02-17T06:55:45.579Z,15.70
2023-02-17T06:58:12.267Z,16.23
2023-02-17T07:00:39.084Z,15.77
2023-02-17T07:03:05.883Z,16.07
2023-02-17T07:05:35.941Z,15.20
2023-02-17T07:08:03.636Z,16.17
2023-02-17T07:10:31.065Z,18.43
2023-02-17T07:12:57.754Z,19.07
2023-02-17T07:15:24.530Z,19.33
2023-02-17T07:17:51.193Z,19.23
2023-02-17T07:20:18.058Z,19.30
2023-02-17T07:22:44.713Z,18.23
2023-02-17T07:25:11.420Z,19.60
2023-02-17T07:27:38.657Z,20.80
2023-02-17T07:30:06.959Z,19.60
2023-02-17T07:32:33.930Z,20.33
2023-02-17T07:35:00.656Z,21.03
2023-02-17T07:37:27.610Z,20.03
2023-02-17T07:39:54.852Z,19.30
2023-02-17T07:42:22.080Z,18.33
2023-02-17T07:44:48.939Z,17.17
2023-02-17T07:47:15.642Z,16.43
2023-02-17T07:49:42.294Z,16.93
2023-02-17T07:52:09.073Z,15.23
2023-02-17T07:54:35.747Z,16.63
2023-02-17T07:57:03.243Z,18.00
2023-02-17T07:59:30.235Z,18.73
2023-02-17T08:01:56.943Z,21.13
2023-02-17T08:04:23.698Z,23.10
2023-02-17T08:06:50.473Z,24.50
2023-02-17T08:09:35.976Z,25.87
2023-02-17T08:12:21.136Z,26.67
2023-02-17T08:14:47.874Z,27.17
2023-02-17T08:17:14.959Z,27.00
2023-02-17T08:19:49.503Z,26.33
2023-02-17T08:22:17.725Z,26.83
2023-02-17T08:24:44.529Z,27.73
2023-02-17T08:27:11.269Z,24.90
2023-02-17T08:29:38.004Z,27.07
2023-02-17T08:32:04.945Z,24.00
2023-02-17T08:34:34.531Z,25.53
2023-02-17T08:37:02.573Z,24.30
2023-02-17T08:39:29.353Z,26.23
2023-02-17T08:41:56.415Z,24.50
2023-02-17T08:44:23.579Z,25.17
2023-02-17T08:46:52.003Z,24.83
2023-02-17T08:49:22.867Z,25.27
2023-02-17T08:51:50.909Z,24.97
2023-02-17T08:54:18.181Z,25.03
2023-02-17T08:56:45.737Z,24.00
2023-02-17T08:59:13.211Z,21.80
2023-02-17T09:01:41.097Z,22.30
2023-02-17T09:04:09.517Z,21.77
2023-02-17T09:06:39.448Z,22.70
2023-02-17T09:09:09.089Z,20.87
2023-02-17T09:11:36.305Z,20.57
2023-02-17T09:14:03.115Z,21.67
2023-02-17T09:16:29.889Z,22.10
2023-02-17T09:18:56.628Z,20.47
2023-02-17T09:21:23.766Z,21.60
2023-02-17T09:23:53.736Z,21.90
2023-02-17T09:26:21.384Z,22.47
2023-02-17T09:28:48.683Z,21.97
2023-02-17T09:31:19.592Z,23.07
2023-02-17T09:33:47.988Z,22.13
2023-02-17T09:36:18.347Z,22.77
2023-02-17T09:38:45.743Z,21.87
2023-02-17T09:41:21.568Z,23.13
2023-02-17T09:43:49.232Z,23.23
2023-02-17T09:46:19.033Z,21.63
2023-02-17T09:48:49.539Z,22.77
2023-02-17T09:51:23.631Z,22.03
2023-02-17T09:54:08.248Z,22.27
2023-02-17T09:56:39.779Z,21.97
2023-02-17T09:59:24.468Z,21.33
2023-02-17T10:01:57.080Z,22.00
2023-02-17T10:04:47.178Z,21.60
2023-02-17T10:07:21.769Z,20.40
2023-02-17T10:10:03.348Z,20.43
2023-02-17T10:12:38.675Z,20.43
2023-02-17T10:15:13.518Z,19.90
2023-02-17T10:17:49.417Z,19.43
2023-02-17T10:20:21.008Z,19.47
2023-02-17T10:22:54.917Z,19.53
2023-02-17T10:25:44.691Z,18.77
2023-02-17T10:28:22.106Z,18.13
2023-02-17T10:31:22.575Z,17.57
2023-02-17T10:34:01.067Z,16.97
2023-02-17T10:36:42.935Z,17.83
2023-02-17T10:39:15.634Z,16.20
2023-02-17T10:41:46.972Z,16.00
2023-02-17T10:44:18.298Z,14.63
2023-02-17T10:46:45.562Z,14.17
2023-02-17T10:49:36.152Z,13.97
2023-02-17T10:52:21.038Z,13.30
2023-02-17T10:55:20.887Z,13.70
2023-02-17T10:57:58.873Z,12.47
2023-02-17T11:00:26.867Z,11.73
2023-02-17T11:02:54.020Z,12.57
2023-02-17T11:05:31.022Z,10.90
2023-02-17T11:08:06.081Z,10.97
2023-02-17T11:10:40.154Z,10.53
2023-02-17T11:13:38.065Z,9.70
2023-02-17T11:16:06.205Z,10.40
2023-02-17T11:18:40.231Z,9.80
2023-02-17T11:21:12.009Z,10.47
2023-02-17T11:23:52.744Z,9.77
2023-02-17T11:26:26.493Z,9.37
2023-02-17T11:28:54.316Z,9.37
2023-02-17T11:31:26.281Z,9.27
2023-02-17T11:33:56.517Z,9.73
2023-02-17T11:36:26.200Z,9.00
2023-02-17T11:38:53.768Z,9.50
2023-02-17T11:41:21.499Z,9.03
2023-02-17T11:43:58.780Z,9.53
2023-02-17T11:46:31.824Z,9.23
2023-02-17T11:49:17.349Z,9.57
2023-02-17T11:52:12.073Z,8.77
2023-02-17T11:55:00.453Z,8.53
2023-02-17T11:57:45.689Z,8.53
2023-02-17T12:00:18.914Z,8.73
2023-02-17T12:03:10.344Z,8.53
2023-02-17T12:05:43.133Z,9.37
2023-02-17T12:08:27.468Z,8.07
2023-02-17T12:11:08.784Z,8.30
2023-02-17T12:14:04.765Z,9.63
2023-02-17T12:16:42.333Z,8.70
2023-02-17T12:19:46.589Z,8.73
2023-02-17T12:22:27.011Z,8.70
2023-02-17T12:25:01.408Z,8.80
2023-02-17T12:27:37.169Z,8.20
2023-02-17T12:30:23.898Z,8.77
2023-02-17T12:33:01.928Z,9.13
2023-02-17T12:35:43.063Z,8.37
2023-02-17T12:38:18.135Z,8.70
2023-02-17T12:40:53.868Z,8.80
2023-02-17T12:43:38.045Z,8.87
2023-02-17T12:46:11.482Z,9.90
2023-02-17T12:48:55.684Z,9.03
2023-02-17T12:51:41.810Z,9.20
2023-02-17T12:54:20.642Z,9.23
2023-02-17T12:56:55.857Z,9.40
2023-02-17T12:59:34.417Z,8.83
2023-02-17T13:02:05.599Z,9.63
2023-02-17T13:04:34.524Z,10.27
2023-02-17T13:07:08.157Z,9.60
2023-02-17T13:09:37.252Z,8.93
2023-02-17T13:12:15.309Z,10.67
2023-02-17T13:14:46.530Z,11.57
2023-02-17T13:17:33.557Z,11.57
2023-02-17T13:20:16.080Z,11.57
2023-02-17T13:22:45.013Z,12.07
2023-02-17T13:25:27.951Z,12.67
2023-02-17T13:27:54.689Z,12.50
2023-02-17T13:30:27.366Z,13.40
2023-02-17T13:33:29.997Z,11.73
2023-02-17T13:35:56.998Z,12.30
2023-02-17T13:38:31.708Z,13.17
2023-02-17T13:41:06.083Z,13.30
2023-02-17T13:43:42.060Z,12.57
2023-02-17T13:46:16.914Z,13.20
2023-02-17T13:48:43.668Z,13.67
2023-02-17T13:51:25.858Z,13.17
2023-02-17T13:53:52.789Z,13.00
2023-02-17T13:56:29.010Z,14.10
2023-02-17T13:59:10.491Z,12.63
2023-02-17T14:01:41.996Z,12.57
2023-02-17T14:04:31.228Z,12.83
2023-02-17T14:07:00.005Z,11.00
2023-02-17T14:09:31.060Z,12.40
2023-02-17T14:12:01.182Z,11.17
2023-02-17T14:14:37.250Z,10.67
2023-02-17T14:17:05.294Z,9.53
2023-02-17T14:19:46.864Z,9.47
2023-02-17T14:22:26.429Z,8.60
2023-02-17T14:25:12.856Z,7.57
2023-02-17T14:27:45.144Z,7.37
2023-02-17T14:30:27.180Z,6.80
2023-02-17T14:33:02.393Z,6.97
2023-02-17T14:35:29.190Z,6.43
2023-02-17T14:38:07.603Z,5.60
2023-02-17T14:40:34.272Z,5.80
2023-02-17T14:43:00.982Z,6.17
2023-02-17T14:45:27.803Z,5.60
2023-02-17T14:47:54.818Z,5.93
2023-02-17T14:50:21.534Z,5.53
2023-02-17T14:52:49.499Z,5.40
2023-02-17T14:55:28.271Z,5.77
2023-02-17T14:57:55.126Z,5.60
2023-02-17T15:00:22.386Z,6.27
2023-02-17T15:02:49.210Z,5.93
2023-02-17T15:05:16.048Z,6.17
2023-02-17T15:07:42.903Z,6.40
2023-02-17T15:10:29.062Z,6.43
2023-02-17T15:12:57.079Z,6.50
2023-02-17T15:15:23.821Z,7.30
2023-02-17T15:17:50.491Z,7.60
2023-02-17T15:20:17.972Z,6.90
2023-02-17T15:22:44.829Z,7.07
2023-02-17T15:25:15.523Z,7.53
2023-02-17T15:27:43.048Z,7.33
2023-02-17T15:30:16.601Z,7.50
2023-02-17T15:32:43.909Z,7.77
2023-02-17T15:35:15.483Z,7.47
2023-02-17T15:37:42.149Z,7.77
2023-02-17T15:40:16.902Z,7.90
2023-02-17T15:42:49.929Z,8.20
2023-02-17T15:45:19.138Z,7.97
2023-02-17T15:47:56.257Z,7.93
2023-02-17T15:50:23.393Z,8.37
2023-02-17T15:52:51.605Z,8.47
2023-02-17T15:55:19.594Z,8.30
2023-02-17T15:57:48.970Z,9.20
2023-02-17T16:00:20.609Z,7.93
2023-02-17T16:02:47.792Z,8.60
2023-02-17T16:05:17.630Z,9.30
2023-02-17T16:07:45.378Z,8.57
2023-02-17T16:10:17.869Z,8.50
2023-02-17T16:12:46.591Z,8.47
2023-02-17T16:15:18.000Z,8.43
2023-02-17T16:17:44.883Z,8.73
2023-02-17T16:20:24.804Z,8.53
2023-02-17T16:22:52.693Z,8.03
2023-02-17T16:25:20.780Z,8.73
2023-02-17T16:27:50.442Z,9.13
2023-02-17T16:30:24.199Z,9.20
2023-02-17T16:32:52.934Z,8.57
2023-02-17T16:35:23.234Z,8.10
2023-02-17T16:38:00.898Z,7.97
2023-02-17T16:40:34.996Z,7.83
2023-02-17T16:43:02.028Z,8.27
2023-02-17T16:45:31.263Z,7.20
2023-02-17T16:48:00.643Z,7.20
2023-02-17T16:50:29.449Z,8.17
2023-02-17T16:53:01.532Z,8.30
2023-02-17T16:55:30.727Z,7.07
2023-02-17T16:57:58.343Z,7.87
2023-02-17T17:00:28.006Z,7.43
2023-02-17T17:02:55.416Z,8.20
2023-02-17T17:05:22.844Z,8.60
2023-02-17T17:07:51.321Z,8.30
2023-02-17T17:10:21.605Z,9.37
2023-02-17T17:12:48.619Z,8.73
2023-02-17T17:15:19.150Z,8.13
2023-02-17T17:18:20.097Z,8.83
2023-02-17T17:20:47.481Z,8.33
2023-02-17T17:23:15.455Z,8.83
2023-02-17T17:25:45.730Z,9.40
2023-02-17T17:28:19.827Z,9.23
2023-02-17T17:30:47.108Z,9.10
2023-02-17T17:33:14.152Z,8.73
2023-02-17T17:35:40.916Z,7.00
2023-02-17T17:38:07.902Z,5.67
2023-02-17T17:40:48.424Z,4.60
2023-02-17T17:43:16.669Z,4.93
2023-02-17T17:45:43.416Z,4.20
2023-02-17T17:48:14.196Z,4.03
2023-02-17T17:50:41.757Z,4.17
2023-02-17T17:53:09.061Z,4.03
2023-02-17T17:55:36.370Z,4.33
2023-02-17T17:58:03.462Z,4.90
2023-02-17T18:00:30.145Z,3.67
2023-02-17T18:02:56.825Z,3.67
2023-02-17T18:05:23.743Z,4.00
2023-02-17T18:07:51.672Z,4.27
2023-02-17T18:10:18.952Z,2.93
2023-02-17T18:12:50.253Z,3.57
2023-02-17T18:15:17.785Z,3.03
2023-02-17T18:17:46.367Z,2.83
2023-02-17T18:20:14.232Z,3.10
2023-02-17T18:22:41.454Z,3.30
2023-02-17T18:25:08.662Z,3.40
2023-02-17T18:27:40.924Z,3.00
2023-02-17T18:30:09.391Z,2.87
2023-02-17T18:32:36.144Z,3.60
2023-02-17T18:35:03.429Z,2.40
2023-02-17T18:37:30.360Z,3.63
2023-02-17T18:39:57.029Z,3.40
2023-02-17T18:42:23.746Z,3.93
2023-02-17T18:44:50.462Z,3.77
2023-02-17T18:47:17.178Z,3.50
2023-02-17T18:49:43.864Z,3.50
2023-02-17T18:52:11.361Z,3.53
2023-02-17T18:54:46.410Z,3.20
2023-02-17T18:57:13.531Z,2.53
2023-02-17T18:59:41.008Z,3.07
2023-02-17T19:02:10.060Z,2.60
2023-02-17T19:04:37.634Z,2.03
2023-02-17T19:07:07.095Z,2.17
2023-02-17T19:09:36.455Z,2.30
2023-02-17T19:12:03.679Z,2.27
2023-02-17T19:14:33.744Z,2.53
2023-02-17T19:17:00.433Z,2.63
2023-02-17T19:19:30.445Z,1.93
2023-02-17T19:21:58.266Z,1.90
2023-02-17T19:24:25.080Z,1.90
2023-02-17T19:26:53.077Z,2.93
2023-02-17T19:29:21.911Z,2.20
2023-02-17T19:31:49.703Z,2.40
2023-02-17T19:34:17.720Z,2.23
2023-02-17T19:36:44.640Z,2.57
2023-02-17T19:39:12.037Z,2.30
2023-02-17T19:41:38.915Z,2.23
2023-02-17T19:44:05.650Z,2.10
2023-02-17T19:46:32.904Z,2.57
2023-02-17T19:49:00.004Z,2.50
2023-02-17T19:51:26.808Z,2.30
2023-02-17T19:53:53.456Z,2.00
2023-02-17T19:56:22.992Z,2.10
2023-02-17T19:58:50.796Z,2.30
2023-02-17T20:01:23.480Z,2.37
2023-02-17T20:03:51.592Z,2.30
2023-02-17T20:06:25.238Z,3.10
2023-02-17T20:08:58.077Z,2.20
2023-02-17T20:11:25.182Z,2.33
2023-02-17T20:13:52.577Z,2.20
2023-02-17T20:16:19.999Z,2.57
2023-02-17T20:18:48.889Z,2.57
2023-02-17T20:21:22.735Z,1.80
2023-02-17T20:23:50.558Z,2.30
2023-02-17T20:26:21.732Z,2.50
2023-02-17T20:28:49.445Z,2.00
2023-02-17T20:31:16.557Z,2.50
2023-02-17T20:33:43.416Z,2.70
2023-02-17T20:36:11.867Z,2.10
2023-02-17T20:38:40.281Z,2.47
2023-02-17T20:41:08.417Z,2.60
2023-02-17T20:43:37.654Z,2.83
2023-02-17T20:46:04.449Z,1.97
2023-02-17T20:48:31.725Z,2.20
2023-02-17T20:50:58.843Z,2.07
2023-02-17T20:53:27.012Z,2.77
2023-02-17T20:55:53.871Z,1.97
2023-02-17T20:58:20.851Z,2.07
2023-02-17T21:00:47.719Z,1.80
2023-02-17T21:03:14.804Z,2.63
2023-02-17T21:05:41.789Z,1.90
2023-02-17T21:08:09.096Z,2.23
2023-02-17T21:10:35.975Z,2.47
2023-02-17T21:13:02.672Z,2.63
2023-02-17T21:15:29.462Z,2.33
2023-02-17T21:17:56.207Z,2.57
2023-02-17T21:20:23.048Z,1.70
2023-02-17T21:22:50.409Z,2.20
2023-02-17T21:25:17.252Z,2.67
2023-02-17T21:27:43.975Z,2.03
2023-02-17T21:30:11.510Z,2.13
2023-02-17T21:32:38.338Z,1.93
2023-02-17T21:35:06.423Z,2.07
2023-02-17T21:37:34.132Z,2.00
2023-02-17T21:40:00.994Z,2.33
2023-02-17T21:42:46.364Z,1.93
2023-02-17T21:45:13.214Z,2.70
2023-02-17T21:47:40.207Z,1.70
2023-02-17T21:50:07.901Z,1.50
2023-02-17T21:52:34.771Z,2.10
2023-02-17T21:55:01.778Z,2.20
2023-02-17T21:57:29.648Z,2.50
2023-02-17T21:59:56.567Z,1.87
2023-02-17T22:02:23.343Z,1.53
2023-02-17T22:04:50.557Z,2.43
2023-02-17T22:07:17.768Z,2.10
2023-02-17T22:09:44.426Z,2.30
2023-02-17T22:12:11.433Z,2.00
2023-02-17T22:14:38.230Z,2.37
2023-02-17T22:17:05.109Z,2.50
2023-02-17T22:19:31.942Z,2.33
2023-02-17T22:21:58.762Z,2.20
2023-02-17T22:24:27.260Z,2.60
2023-02-17T22:26:55.070Z,2.13
2023-02-17T22:29:22.718Z,2.10
2023-02-17T22:31:50.846Z,2.20
2023-02-17T22:34:19.069Z,1.70
2023-02-17T22:36:47.370Z,2.13
2023-02-17T22:39:15.876Z,1.83
2023-02-17T22:41:43.721Z,2.70
2023-02-17T22:44:10.923Z,1.77
2023-02-17T22:46:38.725Z,1.97
2023-02-17T22:49:06.167Z,2.43
2023-02-17T22:51:39.202Z,2.10
2023-02-17T22:54:08.821Z,2.40
2023-02-17T22:56:36.702Z,2.37
2023-02-17T22:59:06.647Z,1.90
2023-02-17T23:01:37.375Z,2.23
2023-02-17T23:04:07.116Z,2.83
2023-02-17T23:06:38.263Z,2.73
2023-02-17T23:09:10.217Z,1.90
2023-02-17T23:11:56.525Z,1.80
2023-02-17T23:14:31.760Z,1.87
2023-02-17T23:17:02.066Z,2.10
2023-02-17T23:19:30.156Z,2.30
2023-02-17T23:22:03.226Z,2.03
2023-02-17T23:24:30.858Z,2.30
2023-02-17T23:27:00.417Z,2.30
2023-02-17T23:29:31.495Z,2.00
2023-02-17T23:31:59.193Z,2.57
2023-02-17T23:34:26.954Z,2.80
2023-02-17T23:36:54.428Z,2.00
2023-02-17T23:39:21.097Z,1.97
2023-02-17T23:41:47.797Z,2.57
2023-02-17T23:44:15.689Z,2.90
2023-02-17T23:46:44.355Z,2.60
2023-02-17T23:49:16.309Z,2.10
2023-02-17T23:51:43.296Z,2.73
2023-02-17T23:54:10.339Z,2.23
2023-02-17T23:56:37.140Z,2.63
2023-02-17T23:59:04.157Z,2.20
